Résultats

La traversee des dauphins et des canards
TDC : 5Km - Bi Palmes. Édition 2017.

5 Km
17/09/2017 à 09:30:00 - Carry (13)
47 arrivant(e)s.





Place▲ Temps Dossard Nom Prenom Categ #Categ Sexe #Sexe Club Vit Moy Diplôme Partager
1 00:46:57 846 BARRUCAND ALAIN VEM 1 M 1 COTE BLEUE PASSION 6.39
2 00:48:29 830 CAIAZZO CHRISTOPHE VEM 2 M 2 6.19
3 00:49:58 826 DECONSTANTZI NICOLAS SEM 1 M 3 COTE BLEUE PASSION 6.00
4 00:50:04 843 JACOB ADAM VEM 3 M 4 5.99
5 00:50:44 804 MATTIO PATRICE VEM 4 M 5 CERCLE D ACTIVITES AQUATIQUES DE PROVENC 5.91
6 00:51:20 845 COLOMBE DENIS VEM 5 M 6 COTE BLEU PASSION 5.84
7 00:51:27 827 LUCIANI PHILIPPE VEM 6 M 7 COTE BLEUE PASSION 5.83
8 00:52:52 829 PULTIN THIBAULT SEM 2 M 8 COTE BLEUE PASSION 5.67
9 00:52:55 801 PONTIER REGIS VEM 7 M 9 CAAP 5.67
10 00:52:57 813 BARDEL THOMAS VEM 8 M 10 LES PLAISIRS DE LA MER 5.67
11 00:54:13 844 FONTAINE THOMAS VEM 9 M 11 COTE BLEUE PASSION 5.53
12 00:54:19 866 VERMARE ANNE VEF 1 F 1 5.52
13 00:55:12 802 DOMINICI ANAIS SEF 1 F 2 GRASM 5.43
14 00:56:57 821 WALCZAK DELPHINE VEF 2 F 3 CAAP 5.27
15 01:02:40 810 GUILLEMOT FRANCOIS VEM 10 M 12 HUM HUM TEAM 4.79
16 01:02:56 832 TRABAUD LAURENT VEM 11 M 13 4.77
17 01:03:05 867 CAPPY LAURENT VEM 12 M 14 PLONGEE PAYS D" AIX 4.76
18 01:03:09 814 DELABY AGNES VEF 3 F 4 LES PLAISIRS DE LA MER 4.75
19 01:03:14 803 BELIE PHILIPPE VEM 13 M 15 ASPTT MARSEILLE 4.74
20 01:03:22 851 SEAUVE SANDRINE VEF 4 F 5 AQUADROME 4.73
21 01:03:28 839 N:Anonyme 839 P:Anonyme 839 VEM 14 M 16 MARIGNANE TRIATHLON 4.73
22 01:03:32 852 LEUILLIER DENIS VEM 15 M 17 AQUADROME 4.72
23 01:04:36 182 MERLET LOUANN VEF 5 F 6 CLUB DES DAUPHINS DE MONPLAISIR 4.64
24 01:05:48 825 VANKIERSBILCK XAVIER VEM 16 M 18 COTE BLEUE PASSION 4.56
25 01:06:08 850 GRUDE LYDIE VEF 6 F 7 AQUADROME 4.54
26 01:06:31 819 HARLE ANNE VEF 7 F 8 U S S PONTET 4.51
27 01:06:37 841 BUFFIERE GILLES VEM 17 M 19 COTE BLEUE PASSION 4.50
28 01:06:51 861 ROGGERO FABIEN SEM 3 M 20 COTE BLEUE PASSION 4.49
29 01:06:56 807 ALONSO STEPHANE VEM 18 M 21 USSP 4.48
30 01:06:58 811 NADEAU PIERRE-YVES VEM 19 M 22 PAN 4.48
31 01:07:34 860 ROBERT OLIVIER VEM 20 M 23 4.44
32 01:07:53 817 DALBESIO ROBERT VEM 21 M 24 USSP PONTET 4.42
33 01:08:33 865 FAIVRE THIERRY VEM 22 M 25 PPA 4.38
34 01:09:10 809 NAUDY FLAVIEN VEM 23 M 26 LA FOULEE DE GREASQUE 4.34
35 01:09:36 847 BIDON LAURENT VEM 24 M 27 4.31
36 01:09:44 859 BONNEMAISON NICOLAS VEM 25 M 28 4.30
37 01:10:00 805 SAINT-MARTIN LUC VEM 26 M 29 4.29
38 01:10:57 858 BONNEMAISON AGATHE VEF 8 F 9 4.23
39 01:13:52 822 GAUBERT SONIA SEF 2 F 10 4.06
40 01:14:36 863 CHRISTIAN COPPIN VEM 27 M 30 1961 4.02
41 01:14:58 855 PESCA ANGE VEM 28 M 31 4.00
42 01:17:21 848 CAMEAU CHARLY VEM 29 M 32 3.88
43 01:17:34 849 SAUVAGE NATHALIE VEF 9 F 11 3.87
44 01:20:08 836 CO DELPHINE VEF 10 F 12 ASPTT 3.74
45 01:20:30 862 CHETOUI KAMEROUN VEM 30 M 33 LA PALME SETOISE 3.73
46 01:22:55 808 DUPUCH ALEXANDRE VEM 31 M 34 TEAM HUM-HUM 3.62
47 01:33:55 864 SELEGINE JEAN-PHILIPPE VEM 32 M 35 3.19